Weather observations for the past three days for
Houma-Terrebonne Airport
| Date | Time (cdt) | Wind (kph) | Vis. (km) | Weather | Sky Cond. | Temperature (ºC) | Relative Humidity | Wind Chill (°C) | Heat Index (°C) | Pressure | Precipitation (cm) | ||||||
|---|---|---|---|---|---|---|---|---|---|---|---|---|---|---|---|---|---|
| Air | Dwpt | 6 hour | altimeter (cm) | sea level (mb) | 1 hr | 3 hr | 6 hr | ||||||||||
| Max. | Min. | ||||||||||||||||
| 30 | 18:47 | E 20 | 11.27 | Fair | CLR | 29 | 23 | 70% | 33 | 76.12 | 0.0 | ||||||
| 30 | 17:47 | E 22 | 11.27 | Fair | CLR | 30 | 24 | 70% | 35 | 76.15 | 0.0 | ||||||
| 30 | 16:47 | E 15 | 11.27 | Fair | CLR | 31 | 24 | 66% | 37 | 76.15 | 0.0 | ||||||
| 30 | 15:47 | E 19 | 11.27 | Partly Cloudy | SCT027 SCT034 | 31 | 24 | 66% | 37 | 76.15 | 0.0 | ||||||
| 30 | 14:47 | E 19 | 11.27 | A Few Clouds | FEW029 | 31 | 24 | 66% | 37 | 76.2 | 0.0 | ||||||
| 30 | 13:47 | E 19 | 11.27 | Mostly Cloudy | SCT029 BKN055 | 29 | 24 | 74% | 34 | 76.3 | 0.0 | ||||||
| 30 | 12:47 | N 19 | 11.27 | Partly Cloudy | SCT050 SCT110 | 31 | 24 | 66% | 37 | 76.3 | 0.0 | ||||||
| 30 | 11:47 | NE 13 | 11.27 | Mostly Cloudy | BKN029 | 31 | 25 | 70% | 38 | 76.33 | 0.0 | ||||||
| 30 | 10:47 | NE 9 | 11.27 | Mostly Cloudy | BKN025 BKN047 BKN090 | 31 | 25 | 70% | 38 | 76.33 | 0.0 | ||||||
| 30 | 09:47 | NE 15 | 11.27 | Mostly Cloudy | BKN018 BKN025 BKN036 | 29 | 25 | 79% | 35 | 76.33 | 0.0 | ||||||
| 30 | 08:50 | N 11 | 11.27 | Fair | CLR | 28 | 26 | 89% | 34 | 76.3 | 0.0 | ||||||
| 30 | 07:50 | N 9 | 11.27 | Fair | CLR | 27 | 25 | 89% | 31 | 76.3 | 0.0 | ||||||
| 30 | 05:50 | NW 7 | 11.27 | Fair | CLR | 26 | 24 | 89% | 28 | 76.2 | 0.0 | ||||||
| 29 | 17:47 | NE 9 | 11.27 | Fair | CLR | 33 | 21 | 49% | 36 | 76.15 | 0.0 | ||||||
| 29 | 16:47 | NE 11 | 11.27 | Fair | CLR | 32 | 19 | 46% | 33 | 76.17 | 0.0 | ||||||
| 29 | 15:47 | N 17 | 11.27 | Fair | CLR | 33 | 20 | 46% | 35 | 76.2 | 0.0 | ||||||
| 29 | 14:50 | NE 15 | 11.27 | Fair | CLR | 34 | 21 | 47% | 37 | 76.25 | 0.0 | ||||||
| 29 | 13:47 | N 15 | 11.27 | Mostly Cloudy | SCT047 SCT055 BKN100 | 33 | 23 | 56% | 38 | 76.3 | 0.0 | ||||||
| 29 | 12:55 | N 19 | 11.27 | Partly Cloudy | SCT044 | 33 | 23 | 56% | 38 | 76.3 | 0.0 | ||||||
| 29 | 11:50 | N 9 | 11.27 | Partly Cloudy | SCT029 SCT035 SCT043 | 32 | 25 | 67% | 39 | 76.35 | 0.0 | ||||||
| 29 | 10:47 | NW 11 | 11.27 | Fair | CLR | 32 | 25 | 67% | 39 | 76.35 | 0.0 | ||||||
| 29 | 09:47 | NW 13 | 11.27 | Fair | CLR | 29 | 25 | 79% | 35 | 76.35 | 0.0 | ||||||
| 29 | 08:47 | Calm | 11.27 | Fair | CLR | 27 | 24 | 84% | 30 | 76.33 | 0.0 | ||||||
| 29 | 07:47 | Calm | 11.27 | Fair | CLR | 25 | 23 | 89% | 26 | 76.35 | 0.0 | ||||||
| 29 | 06:47 | Calm | 11.27 | Partly Cloudy | SCT028 | 24 | 22 | 89% | 24 | 76.3 | 0.0 | ||||||
| 29 | 05:47 | SE 20 | 11.27 | Mostly Cloudy | SCT011 BKN021 | 25 | 23 | 89% | 26 | 76.3 | 0.0 | ||||||
| 28 | 16:50 | NE 7 | 11.27 | Fair | CLR | 33 | 23 | 56% | 38 | 76.12 | 0.0 | ||||||
| 28 | 15:50 | N 11 | 11.27 | Partly Cloudy | SCT050 SCT065 | 33 | 23 | 56% | 38 | 76.17 | 0.0 | ||||||
| 28 | 14:47 | N 9 | 11.27 | Mostly Cloudy | SCT040 SCT065 BKN080 | 33 | 24 | 59% | 39 | 76.23 | 0.0 | ||||||
| 28 | 13:47 | NE 9 | 11.27 | Mostly Cloudy | SCT034 SCT050 BKN080 | 32 | 23 | 59% | 37 | 76.28 | 0.0 | ||||||
| 28 | 12:47 | N 11 | 11.27 | Partly Cloudy | SCT032 SCT041 | 32 | 24 | 63% | 38 | 76.3 | 0.0 | ||||||
| 28 | 11:47 | N 13 | 11.27 | Partly Cloudy | SCT029 SCT035 SCT050 | 31 | 24 | 66% | 37 | 76.33 | 0.0 | ||||||
| 28 | 10:47 | N 13 | 11.27 | Fair | CLR | 30 | 25 | 75% | 36 | 76.33 | 0.0 | ||||||
| 28 | 09:47 | N 13 | 11.27 | Fair | CLR | 29 | 24 | 74% | 34 | 76.3 | 0.0 | ||||||
| 28 | 08:47 | NW 7 | 11.27 | Fair | CLR | 27 | 24 | 84% | 30 | 76.3 | 0.0 | ||||||
| 28 | 07:47 | NW 11 | 11.27 | Fair | CLR | 26 | 24 | 89% | 28 | 76.3 | 0.0 | ||||||
| 28 | 06:47 | Calm | 11.27 | Fair | CLR | 25 | 24 | 94% | 26 | 76.25 | 0.0 | ||||||
| 28 | 05:47 | Calm | 11.27 | Fair | CLR | 25 | 23 | 89% | 26 | 76.17 | 0.0 | ||||||
| Date | Time (cdt) | Wind (kph) | Vis. (km) | Weather | Sky Cond. | Air | Dwpt | Max. | Min. | Relative Humidity | Wind Chill (°C) | Heat Index (°C) | altimeter (cm) | sea level (mb) | 1 hr | 3 hr | 6 hr |
| 6 hour | |||||||||||||||||
| Temperature (ºC) | Pressure | Precipitation (cm) | |||||||||||||||